Amagi Galaxy — V7VE9 — position and weather

sailwx.info

Track history (hours):
 
Tides and Currents Weather Stations Pressure Air Temp Water Temp Dewpoint Dewpoint Depression Visibility Wind Speed Wind Dir Waves Ship Positions

Amagi Galaxy

Last reported at 2015-Jul-02 19:33 UTC. Time now 2015-Jul-02 21:34 UTC.
Position N 22°35' E 120°18'.

Length 152 m; draft 9.2 m.

Type: Tanker. MMSI: 538004105.

Date/timePositionNaut miles runAvg speedWind from/ knotsBaromVisibWave heightAir tempDewpointWater temp
2015-Jul-02 19:33N 22°35' E 120°18'0 0.0
2015-Jul-02 18:21N 22°35' E 120°18'0 0.0
2015-Jul-02 17:33N 22°35' E 120°18'0 0.0
2015-Jul-02 16:33N 22°35' E 120°18'0 0.0
2015-Jul-02 15:33N 22°35' E 120°18'0 0.1
2015-Jul-02 14:33N 22°35' E 120°18'1 0.1
2015-Jul-02 01:17N 22°36' E 120°17'0 0.0
2015-Jul-02 00:29N 22°36' E 120°17'0 0.0
2015-Jul-01 22:29N 22°36' E 120°17'0 0.0
2015-Jul-01 21:17N 22°36' E 120°17'0 0.0
2015-Jul-01 07:24N 22°36' E 120°17'6 7.1
2015-Jul-01 06:30N 22°37' E 120°10'8 8.5
2015-Jul-01 05:32N 22°36' E 120°02'8 7.8
2015-Jul-01 04:33N 22°42' E 119°56'42411.7
2015-Jun-29 16:18N 29°09' E 123°11'1113.4
2015-Jun-29 15:30N 29°16' E 123°20'  
Track history (hours):
 
Tides and Currents Weather Stations Pressure Air Temp Water Temp Dewpoint Dewpoint Depression Visibility Wind Speed Wind Dir Waves Ship Positions

Amagi Galaxy

Last reported at 2015-Jul-02 19:33 UTC. Time now 2015-Jul-02 21:34 UTC.
Position N 22°35' E 120°18'.

Length 152 m; draft 9.2 m.

Type: Tanker. MMSI: 538004105.

Date/timePositionNaut miles runAvg speedWind from/ knotsBaromVisibWave heightAir tempDewpointWater temp
2015-Jul-02 19:33N 22°35' E 120°18'0 0.0
2015-Jul-02 18:21N 22°35' E 120°18'0 0.0
2015-Jul-02 17:33N 22°35' E 120°18'0 0.0
2015-Jul-02 16:33N 22°35' E 120°18'0 0.0
2015-Jul-02 15:33N 22°35' E 120°18'0 0.1
2015-Jul-02 14:33N 22°35' E 120°18'1 0.1
2015-Jul-02 01:17N 22°36' E 120°17'0 0.0
2015-Jul-02 00:29N 22°36' E 120°17'0 0.0
2015-Jul-01 22:29N 22°36' E 120°17'0 0.0
2015-Jul-01 21:17N 22°36' E 120°17'0 0.0
2015-Jul-01 07:24N 22°36' E 120°17'6 7.1
2015-Jul-01 06:30N 22°37' E 120°10'8 8.5
2015-Jul-01 05:32N 22°36' E 120°02'8 7.8
2015-Jul-01 04:33N 22°42' E 119°56'42411.7
2015-Jun-29 16:18N 29°09' E 123°11'1113.4
2015-Jun-29 15:30N 29°16' E 123°20'  

Dump ship's entire track history